< < Back
Terminal Aerodrome Forecast


Current Version              Previous Versions:   1  2  3  4  5  6  7  8  9  

Terminal Aerodrome Forecast

148
FTAK31 PAJN 041723
TAFAHN
TAF
PAHN 041723Z 0418/0518 11003KT P6SM OVC080
     FM042000 09006KT P6SM VCSH OVC060
     FM042200 10008KT P6SM -RA OVC050
     FM050300 10008KT P6SM -RA SCT020 OVC035
     FM050700 09006KT P6SM -RA BKN025 OVC050
     FM051300 05005KT P6SM -SHRA SCT025 OVC040
      AMD LTD TO CLD VIS AND WIND=

Latest METAR

538
SAUS70 KWBC 042100
MTRAHN
METAR KAHN 042051Z AUTO 03004KT 10SM FEW055 33/19 A2996 RMK AO2 SLP137
T03330189 58017 TSNO


USA.gov is the U.S. government's official web portal to all federal, state and local government web resources and services.